Time;durP1;ratioP1;P1;durP2;ratioP2;P2;SDS_P1;SDS_P2;PMS_P1;PMS_P2;Temp;Humidity;BMP_temperature;BMP_pressure;BME280_temperature;BME280_humidity;BME280_pressure;Samples;Min_cycle;Max_cycle;Signal;HPM_P1;HPM_P2
2022/06/08 00:00:30;;;;;;;;;;;;;;;13.33;70.47;97585.56;6276757;22;19919;-75
2022/06/08 00:03:00;;;;;;;;;;;;;;;13.27;71.04;97562.13;6251295;22;19926;-76
2022/06/08 00:05:25;;;;;;;;;;;;;;;13.29;70.47;97572.72;6276585;22;19969;-75
2022/06/08 00:07:51;;;;;;;;;;;;;;;13.24;70.70;97558.97;6251128;22;19965;-76
2022/06/08 00:10:17;;;;;;;;;;;;;;;13.28;70.93;97574.56;6278365;22;19945;-75
2022/06/08 00:12:43;;;;;;;;;;;;;;;13.25;70.67;97574.91;6276593;22;19926;-75
2022/06/08 00:15:10;;;;;;;;;;;;;;;13.28;71.04;97569.19;6252003;22;19997;-75
2022/06/08 00:17:36;;;;;;;;;;;;;;;13.34;70.69;97565.75;6276729;22;19919;-74
2022/06/08 00:20:03;;;;;;;;;;;;;;;13.28;70.52;97574.56;6276708;22;19919;-75
2022/06/08 00:22:29;;;;;;;;;;;;;;;13.28;70.15;97560.31;6276713;22;20465;-75
2022/06/08 00:24:55;;;;;;;;;;;;;;;13.20;70.31;97563.88;6251104;22;19942;-76
2022/06/08 00:27:20;;;;;;;;;;;;;;;13.20;70.46;97569.25;6250980;22;20341;-75
2022/06/08 00:29:46;;;;;;;;;;;;;;;13.26;70.49;97571.22;6276461;22;19923;-76
2022/06/08 00:32:12;;;;;;;;;;;;;;;13.21;70.19;97575.44;6302426;22;19931;-76
2022/06/08 00:34:37;;;;;;;;;;;;;;;13.31;70.59;97587.63;6255639;22;20289;-76
2022/06/08 00:37:03;;;;;;;;;;;;;;;13.28;70.01;97571.03;6281811;22;19926;-76
2022/06/08 00:39:29;;;;;;;;;;;;;;;13.31;70.65;97571.50;6256033;22;19919;-75
2022/06/08 00:41:57;;;;;;;;;;;;;;;13.38;70.09;97586.88;6308931;22;19973;-74
2022/06/08 00:44:24;;;;;;;;;;;;;;;13.44;70.17;97572.72;6309271;22;19923;-75
2022/06/08 00:46:51;;;;;;;;;;;;;;;13.51;69.71;97576.34;6255939;22;19945;-75
2022/06/08 00:49:19;;;;;;;;;;;;;;;13.29;69.45;97592.31;6231079;22;19923;-75
2022/06/08 00:51:45;;;;;;;;;;;;;;;13.32;69.96;97580.41;6281328;22;20247;-76
2022/06/08 00:54:15;;;;;;;;;;;;;;;13.42;69.68;97580.09;6256085;22;19923;-76
2022/06/08 00:56:45;;;;;;;;;;;;;;;13.45;69.55;97582.44;6256579;22;19926;-75
2022/06/08 00:59:11;;;;;;;;;;;;;;;13.41;68.64;97581.13;6256023;22;19918;-76
2022/06/08 01:01:36;;;;;;;;;;;;;;;13.29;69.04;97570.84;6256095;22;20334;-75
2022/06/08 01:04:11;;;;;;;;;;;;;;;13.16;68.90;97573.28;6307367;22;19945;-76
2022/06/08 01:06:40;;;;;;;;;;;;;;;13.17;69.45;97583.03;6255933;22;19918;-75
2022/06/08 01:09:12;;;;;;;;;;;;;;;13.18;69.56;97576.63;6230488;22;19919;-75
2022/06/08 01:11:43;;;;;;;;;;;;;;;13.05;68.91;97585.31;6255539;22;19918;-76
2022/06/08 01:14:11;;;;;;;;;;;;;;;13.09;68.88;97594.66;6255828;22;20385;-75
2022/06/08 01:16:43;;;;;;;;;;;;;;;12.97;68.96;97582.69;6255728;22;20251;-76
2022/06/08 01:19:10;;;;;;;;;;;;;;;12.91;68.97;97585.28;6255906;22;19919;-74
2022/06/08 01:21:36;;;;;;;;;;;;;;;12.86;69.31;97593.84;6281293;22;19919;-74
2022/06/08 01:24:12;;;;;;;;;;;;;;;13.08;69.41;97597.50;6256035;22;19946;-75
2022/06/08 01:27:05;;;;;;;;;;;;;;;13.11;69.00;97597.16;6256623;22;19922;-75
2022/06/08 01:29:54;;;;;;;;;;;;;;;13.03;67.96;97610.63;6307054;22;19925;-75
2022/06/08 01:32:22;;;;;;;;;;;;;;;12.92;68.33;97597.66;6239435;22;20377;-74
2022/06/08 01:34:48;;;;;;;;;;;;;;;12.84;68.80;97602.06;6260250;22;19923;-75
2022/06/08 01:37:23;;;;;;;;;;;;;;;12.87;68.23;97596.34;6250356;22;19951;-76
2022/06/08 01:39:52;;;;;;;;;;;;;;;12.76;67.92;97599.47;6200018;22;19926;-76
2022/06/08 01:42:31;;;;;;;;;;;;;;;12.72;68.27;97591.97;6224947;22;19959;-76
2022/06/08 01:45:30;;;;;;;;;;;;;;;12.86;68.27;97586.66;6250523;22;20286;-76
2022/06/08 01:47:59;;;;;;;;;;;;;;;12.88;68.06;97581.91;6225319;22;20254;-75
2022/06/08 01:50:35;;;;;;;;;;;;;;;12.80;68.58;97584.66;6250260;22;19988;-74
2022/06/08 01:53:04;;;;;;;;;;;;;;;12.81;68.34;97597.06;6225507;22;20302;-75
2022/06/08 01:55:42;;;;;;;;;;;;;;;12.84;67.80;97602.06;6224956;22;19923;-75
2022/06/08 01:58:08;;;;;;;;;;;;;;;12.80;68.00;97592.72;6225104;22;19919;-75
2022/06/08 02:00:45;;;;;;;;;;;;;;;12.81;67.50;97580.13;6250410;22;19919;-75
2022/06/08 02:03:30;;;;;;;;;;;;;;;12.76;67.74;97602.13;6225095;22;20002;-75
2022/06/08 02:06:06;;;;;;;;;;;;;;;12.69;67.48;97585.09;6224747;22;20335;-75
2022/06/08 02:08:38;;;;;;;;;;;;;;;12.61;67.33;97601.25;6224307;22;20074;-76
2022/06/08 02:11:13;;;;;;;;;;;;;;;12.64;67.30;97596.34;6200085;22;20342;-76
2022/06/08 02:13:44;;;;;;;;;;;;;;;12.65;67.51;97594.50;6199545;22;19926;-74
2022/06/08 02:16:31;;;;;;;;;;;;;;;12.50;67.87;97604.34;6200280;22;19924;-75
2022/06/08 02:19:04;;;;;;;;;;;;;;;12.52;67.80;97623.72;6199968;22;19919;-75
2022/06/08 02:21:36;;;;;;;;;;;;;;;12.45;68.07;97617.41;6224814;22;20334;-77
2022/06/08 02:24:15;;;;;;;;;;;;;;;12.37;68.49;97610.25;6200546;22;19919;-76
2022/06/08 02:26:43;;;;;;;;;;;;;;;12.38;68.56;97612.78;6250614;22;19919;-76
2022/06/08 02:29:21;;;;;;;;;;;;;;;12.35;68.49;97623.84;6199723;22;19919;-76
2022/06/08 02:32:04;;;;;;;;;;;;;;;12.28;68.76;97606.78;6250255;22;19919;-74
2022/06/08 02:34:34;;;;;;;;;;;;;;;12.16;68.73;97613.56;6217093;22;19919;-75
2022/06/08 02:37:05;;;;;;;;;;;;;;;12.14;69.14;97611.03;6282395;22;19930;-77
2022/06/08 02:39:43;;;;;;;;;;;;;;;12.10;69.00;97623.13;6231604;22;19963;-77
2022/06/08 02:42:45;;;;;;;;;;;;;;;12.06;68.52;97624.47;6230283;22;19964;-76
2022/06/08 02:45:14;;;;;;;;;;;;;;;11.98;69.15;97627.19;6213322;23;19919;-77
2022/06/08 02:47:43;;;;;;;;;;;;;;;11.95;68.90;97640.09;6269643;22;19996;-76
2022/06/08 02:50:14;;;;;;;;;;;;;;;11.89;68.99;97628.25;6254705;22;19926;-78
2022/06/08 02:52:42;;;;;;;;;;;;;;;11.83;69.26;97619.06;6281705;22;19919;-76
2022/06/08 02:55:17;;;;;;;;;;;;;;;11.79;69.32;97623.06;6231366;22;20295;-80
2022/06/08 02:57:47;;;;;;;;;;;;;;;12.29;73.85;97624.53;6234927;22;19919;-79
2022/06/08 03:00:33;;;;;;;;;;;;;;;12.33;67.88;97612.44;6233141;22;19919;-80
2022/06/08 03:02:58;;;;;;;;;;;;;;;12.23;67.68;97625.25;6256765;22;19919;-77
2022/06/08 03:05:27;;;;;;;;;;;;;;;12.15;67.92;97634.16;6256692;22;19923;-80
2022/06/08 03:07:56;;;;;;;;;;;;;;;12.09;68.41;97624.13;6257122;22;19973;-77
2022/06/08 03:10:23;;;;;;;;;;;;;;;12.04;68.48;97620.31;6280707;22;20099;-77
2022/06/08 03:12:51;;;;;;;;;;;;;;;11.95;68.95;97616.81;6255195;22;19918;-77
2022/06/08 03:15:20;;;;;;;;;;;;;;;11.92;69.36;97622.53;6230248;22;20255;-78
2022/06/08 03:17:49;;;;;;;;;;;;;;;11.96;68.93;97613.16;6280051;22;19922;-76
2022/06/08 03:20:16;;;;;;;;;;;;;;;12.07;68.93;97636.03;6281555;22;19935;-77
2022/06/08 03:22:42;;;;;;;;;;;;;;;12.05;68.95;97621.97;6233124;22;19996;-76
2022/06/08 03:25:08;;;;;;;;;;;;;;;11.99;68.97;97630.69;6255155;22;19926;-78
2022/06/08 03:27:38;;;;;;;;;;;;;;;12.09;69.02;97628.66;6255076;22;19926;-76
2022/06/08 03:30:07;;;;;;;;;;;;;;;12.13;68.99;97627.31;6254228;22;19998;-81
2022/06/08 03:32:37;;;;;;;;;;;;;;;12.93;72.24;97626.13;6286718;22;19919;-90
2022/06/08 03:35:04;;;;;;;;;;;;;;;12.84;66.89;97623.53;6260944;22;19923;-88
2022/06/08 03:37:30;;;;;;;;;;;;;;;12.94;67.63;97638.53;6226702;22;19945;-88
2022/06/08 03:39:58;;;;;;;;;;;;;;;13.18;67.34;97627.59;6288342;22;19925;-92
2022/06/08 03:42:24;;;;;;;;;;;;;;;13.00;66.16;97633.28;6255010;22;20287;-86
2022/06/08 03:44:50;;;;;;;;;;;;;;;13.25;67.35;97642.00;6262124;22;20362;-91
2022/06/08 03:47:18;;;;;;;;;;;;;;;13.27;65.66;97623.84;6231402;22;19919;-91
2022/06/08 03:49:48;;;;;;;;;;;;;;;13.18;64.93;97624.09;6226028;22;19919;-78
2022/06/08 03:52:17;;;;;;;;;;;;;;;12.98;65.00;97629.13;6249156;22;20398;-76
2022/06/08 03:54:47;;;;;;;;;;;;;;;12.68;65.84;97655.00;6276582;22;19969;-76
2022/06/08 03:57:14;;;;;;;;;;;;;;;12.55;66.09;97642.16;6224086;22;19919;-76
2022/06/08 03:59:42;;;;;;;;;;;;;;;12.35;66.93;97634.56;6249055;22;19930;-76
2022/06/08 04:02:10;;;;;;;;;;;;;;;12.21;67.63;97642.50;6225633;22;20232;-77
2022/06/08 04:04:37;;;;;;;;;;;;;;;12.16;68.12;97645.72;6226015;22;19920;-77
2022/06/08 04:07:10;;;;;;;;;;;;;;;12.14;68.76;97655.75;6251225;22;19919;-76
2022/06/08 04:09:38;;;;;;;;;;;;;;;12.11;68.38;97654.28;6251249;22;19919;-77
2022/06/08 04:12:04;;;;;;;;;;;;;;;11.93;69.53;97650.16;6251089;22;19927;-76
2022/06/08 04:14:31;;;;;;;;;;;;;;;11.95;69.66;97645.44;6226873;22;19926;-76
2022/06/08 04:16:57;;;;;;;;;;;;;;;11.90;70.27;97651.31;6251324;22;19919;-77
2022/06/08 04:19:24;;;;;;;;;;;;;;;11.86;70.60;97648.16;6251247;22;20331;-76
2022/06/08 04:21:50;;;;;;;;;;;;;;;11.77;71.35;97659.03;6225758;22;19926;-75
2022/06/08 04:24:19;;;;;;;;;;;;;;;11.66;71.62;97662.91;6201141;22;19946;-77
2022/06/08 04:26:50;;;;;;;;;;;;;;;11.73;72.57;97650.50;6201634;22;19923;-76
2022/06/08 04:29:31;;;;;;;;;;;;;;;11.60;72.84;97664.41;6226169;22;19962;-77
2022/06/08 04:31:58;;;;;;;;;;;;;;;11.47;74.00;97655.22;6263803;22;19919;-77
2022/06/08 04:34:27;;;;;;;;;;;;;;;11.34;74.92;97671.81;6220217;23;19919;-77
2022/06/08 04:36:53;;;;;;;;;;;;;;;11.28;75.27;97662.59;6220374;23;19923;-78
2022/06/08 04:39:22;;;;;;;;;;;;;;;11.30;75.99;97670.47;6220269;23;19927;-77
2022/06/08 04:41:53;;;;;;;;;;;;;;;11.42;75.72;97664.59;6191179;23;19962;-77
2022/06/08 04:44:21;;;;;;;;;;;;;;;11.49;75.37;97662.09;6190630;23;20331;-77
2022/06/08 04:46:47;;;;;;;;;;;;;;;11.48;75.24;97670.31;6215139;23;19920;-77
2022/06/08 04:49:18;;;;;;;;;;;;;;;11.43;75.56;97663.63;6191325;23;19927;-78
2022/06/08 04:51:45;;;;;;;;;;;;;;;11.48;75.56;97667.63;6190253;23;19920;-77
2022/06/08 04:54:11;;;;;;;;;;;;;;;11.59;75.55;97665.44;6240540;23;19919;-77
2022/06/08 04:56:39;;;;;;;;;;;;;;;11.68;75.53;97668.91;6215470;23;19920;-77
2022/06/08 04:59:06;;;;;;;;;;;;;;;11.90;75.13;97672.75;6214934;23;19931;-77
2022/06/08 05:01:35;;;;;;;;;;;;;;;12.04;74.60;97672.03;6215163;23;19924;-76
2022/06/08 05:04:05;;;;;;;;;;;;;;;12.07;73.74;97663.66;6214977;23;20420;-76
2022/06/08 05:06:31;;;;;;;;;;;;;;;12.10;73.57;97667.81;6214964;23;19920;-76
2022/06/08 05:08:56;;;;;;;;;;;;;;;12.14;73.25;97663.78;6189914;23;20347;-76
2022/06/08 05:11:25;;;;;;;;;;;;;;;12.25;73.27;97671.44;6190066;23;19928;-77
2022/06/08 05:13:52;;;;;;;;;;;;;;;12.44;73.33;97669.34;6189700;23;19920;-77
2022/06/08 05:16:19;;;;;;;;;;;;;;;12.35;72.40;97679.28;6214768;23;19945;-77
2022/06/08 05:18:47;;;;;;;;;;;;;;;12.43;72.59;97668.50;6214882;23;19941;-76
2022/06/08 05:21:16;;;;;;;;;;;;;;;12.37;72.13;97678.09;6215270;23;19927;-77
2022/06/08 05:23:43;;;;;;;;;;;;;;;12.36;71.87;97665.69;6217488;23;19926;-77
2022/06/08 05:26:14;;;;;;;;;;;;;;;12.49;72.58;97678.53;6191643;23;20340;-76
2022/06/08 05:28:42;;;;;;;;;;;;;;;12.32;71.97;97672.41;6189609;23;19920;-77
2022/06/08 05:31:09;;;;;;;;;;;;;;;12.20;72.50;97673.81;6215097;23;20332;-77
2022/06/08 05:33:38;;;;;;;;;;;;;;;12.11;73.22;97685.53;6214910;23;20332;-77
2022/06/08 05:36:12;;;;;;;;;;;;;;;11.97;72.96;97683.63;6215183;23;19955;-77
2022/06/08 05:38:39;;;;;;;;;;;;;;;11.91;73.50;97680.59;6189823;23;19947;-77
2022/06/08 05:41:05;;;;;;;;;;;;;;;11.85;74.22;97683.16;6194384;23;20312;-78
2022/06/08 05:43:34;;;;;;;;;;;;;;;11.95;74.33;97682.94;6219626;23;20386;-77
2022/06/08 05:45:59;;;;;;;;;;;;;;;12.14;74.56;97685.22;6219936;23;19919;-78
2022/06/08 05:48:26;;;;;;;;;;;;;;;12.30;74.11;97681.66;6219743;23;19959;-78
2022/06/08 05:50:52;;;;;;;;;;;;;;;12.41;73.48;97675.88;6195227;23;19919;-77
2022/06/08 05:53:21;;;;;;;;;;;;;;;12.61;73.57;97676.28;6194359;23;19919;-77
2022/06/08 05:55:48;;;;;;;;;;;;;;;12.71;72.77;97679.56;6245236;23;19919;-77
2022/06/08 05:58:14;;;;;;;;;;;;;;;12.72;71.68;97678.56;6219986;23;19919;-78
2022/06/08 06:00:43;;;;;;;;;;;;;;;12.69;71.14;97678.94;6194374;23;20357;-77
2022/06/08 06:03:13;;;;;;;;;;;;;;;12.61;71.39;97676.28;6219600;23;20393;-77
2022/06/08 06:05:40;;;;;;;;;;;;;;;12.59;71.54;97673.78;6245249;23;19927;-75
2022/06/08 06:08:10;;;;;;;;;;;;;;;12.66;71.29;97679.28;6195811;23;20256;-77
2022/06/08 06:10:44;;;;;;;;;;;;;;;12.48;71.32;97668.81;6196289;23;19919;-76
2022/06/08 06:13:12;;;;;;;;;;;;;;;12.49;72.47;97677.72;6194594;23;19945;-78
2022/06/08 06:15:55;;;;;;;;;;;;;;;12.44;72.49;97680.06;6219560;23;19942;-77
2022/06/08 06:18:21;;;;;;;;;;;;;;;12.42;71.83;97682.09;6219505;23;20482;-77
2022/06/08 06:21:15;;;;;;;;;;;;;;;12.53;72.47;97697.78;6196477;23;19946;-77
2022/06/08 06:24:02;;;;;;;;;;;;;;;12.43;72.02;97678.41;6213538;23;19919;-77
2022/06/08 06:26:38;;;;;;;;;;;;;;;12.56;72.22;97678.66;6219846;23;19969;-76
2022/06/08 06:29:24;;;;;;;;;;;;;;;12.55;71.97;97682.34;6219437;23;19959;-79
2022/06/08 06:32:12;;;;;;;;;;;;;;;12.53;72.23;97684.38;6219782;23;19919;-77
2022/06/08 06:34:44;;;;;;;;;;;;;;;12.34;72.75;97697.19;6195816;23;20354;-78
2022/06/08 06:37:10;;;;;;;;;;;;;;;12.35;72.79;97698.88;6219645;23;19972;-77
2022/06/08 06:39:37;;;;;;;;;;;;;;;12.30;72.80;97693.19;6219771;23;19927;-76
2022/06/08 06:42:16;;;;;;;;;;;;;;;12.37;73.10;97701.34;6191073;23;19924;-77
2022/06/08 06:44:45;;;;;;;;;;;;;;;12.36;73.27;97689.81;6190308;23;19924;-77
2022/06/08 06:47:16;;;;;;;;;;;;;;;12.36;73.40;97694.34;6190466;23;19920;-77
2022/06/08 06:49:50;;;;;;;;;;;;;;;12.39;73.51;97691.31;6190953;23;19955;-77
2022/06/08 06:52:18;;;;;;;;;;;;;;;12.43;73.24;97699.84;6214630;23;19947;-77
2022/06/08 06:54:44;;;;;;;;;;;;;;;12.35;72.91;97704.22;6189347;23;20006;-76
2022/06/08 06:57:11;;;;;;;;;;;;;;;12.25;72.95;97708.09;6189266;23;20386;-77
2022/06/08 06:59:38;;;;;;;;;;;;;;;12.19;72.93;97706.16;6214179;23;19926;-77
2022/06/08 07:02:13;;;;;;;;;;;;;;;12.19;73.65;97704.28;6214197;23;20407;-76
2022/06/08 07:04:39;;;;;;;;;;;;;;;12.31;74.17;97713.63;6239549;23;19920;-77
2022/06/08 07:07:05;;;;;;;;;;;;;;;12.17;72.41;97754.50;6214422;23;19923;-76
2022/06/08 07:09:31;;;;;;;;;;;;;;;12.13;72.74;97727.22;6215117;23;20341;-77
2022/06/08 07:11:58;;;;;;;;;;;;;;;11.96;73.09;97740.81;6213849;23;19999;-76
2022/06/08 07:14:28;;;;;;;;;;;;;;;11.91;72.96;97741.34;6190369;23;19920;-76
2022/06/08 07:17:04;;;;;;;;;;;;;;;12.04;73.51;97727.44;6189133;23;20290;-77
2022/06/08 07:19:34;;;;;;;;;;;;;;;11.96;73.67;97736.34;6214387;23;19927;-77
2022/06/08 07:22:00;;;;;;;;;;;;;;;11.87;73.67;97756.91;6189053;23;19920;-76
2022/06/08 07:24:30;;;;;;;;;;;;;;;11.88;73.95;97739.88;6214077;23;20000;-77
2022/06/08 07:26:56;;;;;;;;;;;;;;;12.03;74.65;97736.47;6188519;23;19924;-77
2022/06/08 07:29:22;;;;;;;;;;;;;;;12.17;74.15;97730.41;6189246;23;19986;-78
2022/06/08 07:31:47;;;;;;;;;;;;;;;12.24;74.02;97742.09;6239257;23;20344;-77
2022/06/08 07:34:14;;;;;;;;;;;;;;;12.25;73.96;97738.41;6215452;23;19920;-78
2022/06/08 07:36:40;;;;;;;;;;;;;;;12.34;73.83;97742.75;6240461;23;19947;-77
2022/06/08 07:39:05;;;;;;;;;;;;;;;12.37;74.09;97750.44;6191194;23;20237;-77
2022/06/08 07:41:31;;;;;;;;;;;;;;;12.37;73.62;97749.59;6215703;23;19958;-78
2022/06/08 07:43:57;;;;;;;;;;;;;;;12.34;73.41;97740.06;6215696;23;19919;-77
2022/06/08 07:46:23;;;;;;;;;;;;;;;12.36;73.44;97748.75;6215891;23;20007;-78
2022/06/08 07:51:33;;;;;;;;;;;;;;;12.35;73.99;97747.09;6190963;23;19966;-77
2022/06/08 07:54:02;;;;;;;;;;;;;;;12.44;73.76;97752.41;6191458;23;19919;-77
2022/06/08 07:56:29;;;;;;;;;;;;;;;12.27;73.99;97743.63;6215982;23;20329;-78
2022/06/08 07:58:55;;;;;;;;;;;;;;;12.27;74.53;97760.53;6241337;23;19923;-79
2022/06/08 08:01:20;;;;;;;;;;;;;;;12.45;74.41;97764.78;6190823;23;19919;-77
2022/06/08 08:03:46;;;;;;;;;;;;;;;12.55;73.65;97754.72;6215789;23;19919;-76
2022/06/08 08:06:12;;;;;;;;;;;;;;;12.57;72.95;97750.88;6215290;23;20295;-76
2022/06/08 08:08:38;;;;;;;;;;;;;;;12.59;72.77;97746.16;6215763;23;19962;-77
2022/06/08 08:11:05;;;;;;;;;;;;;;;12.56;72.85;97754.56;6190156;23;19923;-76
2022/06/08 08:13:32;;;;;;;;;;;;;;;12.55;73.31;97757.41;6191059;23;19920;-77
2022/06/08 08:15:58;;;;;;;;;;;;;;;12.49;73.93;97763.47;6215769;23;19926;-77
2022/06/08 08:18:24;;;;;;;;;;;;;;;12.44;73.75;97765.81;6215538;23;19970;-76
2022/06/08 08:20:50;;;;;;;;;;;;;;;12.52;73.58;97760.41;6190722;23;20344;-77
2022/06/08 08:23:16;;;;;;;;;;;;;;;12.72;73.99;97763.53;6215554;23;20398;-77
2022/06/08 08:25:42;;;;;;;;;;;;;;;12.68;73.64;97763.03;6240907;23;20395;-76
2022/06/08 08:28:08;;;;;;;;;;;;;;;12.67;73.13;97772.06;6240759;23;19920;-76
2022/06/08 08:30:34;;;;;;;;;;;;;;;12.70;72.73;97777.09;6216559;23;19927;-76
2022/06/08 08:33:00;;;;;;;;;;;;;;;12.60;72.54;97768.44;6215275;23;19919;-77
2022/06/08 08:35:27;;;;;;;;;;;;;;;12.50;72.86;97781.22;6215640;23;20359;-78
2022/06/08 08:37:54;;;;;;;;;;;;;;;12.52;72.73;97773.81;6190875;23;19923;-77
2022/06/08 08:40:33;;;;;;;;;;;;;;;12.68;72.43;97779.13;6190470;23;19919;-77
2022/06/08 08:42:59;;;;;;;;;;;;;;;12.89;72.81;97779.34;6215437;23;19927;-76
2022/06/08 08:45:27;;;;;;;;;;;;;;;12.91;71.70;97783.72;6217572;23;19938;-77
2022/06/08 08:48:02;;;;;;;;;;;;;;;12.78;72.14;97786.94;6189813;23;19924;-77
2022/06/08 08:50:41;;;;;;;;;;;;;;;12.91;72.21;97787.22;6240701;23;19920;-79
2022/06/08 08:53:16;;;;;;;;;;;;;;;12.91;71.02;97789.09;6190401;23;19919;-77
2022/06/08 08:55:48;;;;;;;;;;;;;;;13.02;71.51;97788.69;6190110;23;20336;-77
2022/06/08 08:58:24;;;;;;;;;;;;;;;13.02;71.65;97786.00;6216960;23;19919;-77
2022/06/08 09:00:51;;;;;;;;;;;;;;;13.17;71.42;97784.25;6240830;23;19919;-76
2022/06/08 09:03:22;;;;;;;;;;;;;;;13.26;70.44;97788.56;6190452;23;19920;-77
2022/06/08 09:05:51;;;;;;;;;;;;;;;13.23;69.52;97790.72;6190564;23;20266;-77
2022/06/08 09:08:18;;;;;;;;;;;;;;;13.25;69.77;97791.44;6240628;23;19924;-77
2022/06/08 09:10:44;;;;;;;;;;;;;;;13.13;70.24;97788.28;6215260;23;19961;-76
2022/06/08 09:13:12;;;;;;;;;;;;;;;13.02;70.28;97791.38;6240273;23;19927;-77
2022/06/08 09:16:04;;;;;;;;;;;;;;;13.19;69.94;97792.94;6216433;23;20003;-77
2022/06/08 09:18:39;;;;;;;;;;;;;;;13.40;70.25;97794.19;6208531;23;20295;-77
2022/06/08 09:21:26;;;;;;;;;;;;;;;13.32;70.33;97793.22;6215468;23;19963;-76
2022/06/08 09:24:06;;;;;;;;;;;;;;;13.08;70.48;97798.69;6240583;23;20199;-76
2022/06/08 09:26:33;;;;;;;;;;;;;;;13.30;70.46;97791.72;6214962;23;20394;-78
2022/06/08 09:29:02;;;;;;;;;;;;;;;13.45;70.36;97805.22;6239697;23;19920;-76
2022/06/08 09:31:33;;;;;;;;;;;;;;;13.60;69.96;97788.13;6240118;23;19920;-76
2022/06/08 09:34:05;;;;;;;;;;;;;;;13.77;69.19;97802.28;6215177;23;20224;-76
2022/06/08 09:36:31;;;;;;;;;;;;;;;13.66;68.34;97800.03;6215605;23;19920;-76
2022/06/08 09:38:57;;;;;;;;;;;;;;;13.63;69.07;97797.69;6214854;23;19942;-76
2022/06/08 09:41:34;;;;;;;;;;;;;;;13.50;69.00;97811.72;6214429;23;19930;-78
2022/06/08 09:44:03;;;;;;;;;;;;;;;13.45;68.94;97818.63;6216053;23;20356;-76
2022/06/08 09:52:24;;;;;;;;;;;;;;;13.03;70.31;97819.84;6216396;23;19920;-77
2022/06/08 09:55:03;;;;;;;;;;;;;;;13.05;70.59;97825.88;6214789;23;19927;-77
2022/06/08 09:57:29;;;;;;;;;;;;;;;13.09;70.25;97846.81;6240242;23;20255;-79
2022/06/08 10:00:14;;;;;;;;;;;;;;;13.00;71.94;97830.94;6214227;23;19995;-77
2022/06/08 10:02:50;;;;;;;;;;;;;;;12.99;71.63;97837.31;6190601;23;19994;-77
2022/06/08 10:05:33;;;;;;;;;;;;;;;12.92;71.62;97829.13;6214948;23;19978;-77
2022/06/08 10:08:02;;;;;;;;;;;;;;;12.89;72.29;97827.63;6214638;23;20002;-77
2022/06/08 10:10:46;;;;;;;;;;;;;;;13.12;72.19;97829.53;6189322;23;19921;-78
2022/06/08 10:13:35;;;;;;;;;;;;;;;13.26;71.82;97826.13;6214021;23;19920;-77
2022/06/08 10:16:04;;;;;;;;;;;;;;;13.26;71.00;97846.75;6220192;23;20355;-76
2022/06/08 10:18:42;;;;;;;;;;;;;;;13.29;69.91;97849.09;6239405;23;20015;-77
2022/06/08 10:21:14;;;;;;;;;;;;;;;13.41;69.27;97830.75;6188863;23;19920;-76
2022/06/08 10:23:44;;;;;;;;;;;;;;;13.43;69.04;97842.97;6189758;23;19920;-78
2022/06/08 10:26:09;;;;;;;;;;;;;;;13.42;69.08;97837.78;6214389;23;19920;-78
2022/06/08 10:28:41;;;;;;;;;;;;;;;13.51;68.83;97834.03;6214098;23;19924;-77
2022/06/08 10:31:13;;;;;;;;;;;;;;;13.55;68.59;97846.09;6214476;23;19920;-77
2022/06/08 10:33:45;;;;;;;;;;;;;;;13.64;68.51;97850.38;6214375;23;19942;-76
2022/06/08 10:36:14;;;;;;;;;;;;;;;13.47;68.83;97833.56;6189745;23;19920;-78
2022/06/08 10:38:44;;;;;;;;;;;;;;;13.46;68.25;97858.69;6189159;23;19920;-77
2022/06/08 10:43:55;;;;;;;;;;;;;;;13.41;68.33;97865.63;6246137;23;19924;-76
2022/06/08 10:46:32;;;;;;;;;;;;;;;13.36;69.54;97848.22;6219864;23;20259;-75
2022/06/08 10:48:58;;;;;;;;;;;;;;;13.50;69.03;97857.38;6194299;23;19972;-76
2022/06/08 10:51:27;;;;;;;;;;;;;;;13.48;68.89;97850.50;6245828;23;19966;-76
2022/06/08 10:56:38;;;;;;;;;;;;;;;13.45;69.06;97845.47;6219283;23;19920;-78
2022/06/08 10:59:04;;;;;;;;;;;;;;;13.53;69.08;97845.41;6219092;23;20002;-76
2022/06/08 11:01:33;;;;;;;;;;;;;;;13.44;69.22;97850.00;6219600;23;20352;-77
2022/06/08 11:04:01;;;;;;;;;;;;;;;13.53;69.20;97837.34;6219381;23;19927;-76
2022/06/08 11:06:45;;;;;;;;;;;;;;;13.48;68.65;97850.50;6219237;23;19946;-77
2022/06/08 11:09:20;;;;;;;;;;;;;;;13.73;68.60;97837.75;6218673;23;20302;-77
2022/06/08 11:11:49;;;;;;;;;;;;;;;13.74;68.15;97856.34;6220909;23;19925;-77
2022/06/08 11:14:30;;;;;;;;;;;;;;;13.76;68.12;97837.34;6196748;23;19924;-77
2022/06/08 11:17:02;;;;;;;;;;;;;;;13.66;68.89;97869.84;6185061;23;19952;-77
2022/06/08 11:19:53;;;;;;;;;;;;;;;13.43;69.99;97861.78;6111323;23;19986;-78
2022/06/08 11:22:25;;;;;;;;;;;;;;;13.25;71.68;97845.94;6185880;23;19920;-76
2022/06/08 11:24:55;;;;;;;;;;;;;;;13.17;72.54;97843.25;6160265;23;20264;-77
2022/06/08 11:27:23;;;;;;;;;;;;;;;13.27;72.74;97849.25;6159867;23;20004;-77
2022/06/08 11:29:52;;;;;;;;;;;;;;;13.26;72.17;97869.06;6184783;23;20044;-77
2022/06/08 11:32:40;;;;;;;;;;;;;;;13.27;72.43;97838.53;6110679;23;19986;-76
2022/06/08 11:35:12;;;;;;;;;;;;;;;13.39;72.77;97848.84;6144159;23;20376;-76
2022/06/08 11:37:50;;;;;;;;;;;;;;;13.45;72.22;97845.47;6135100;23;19943;-76
2022/06/08 11:40:25;;;;;;;;;;;;;;;13.35;72.41;97851.06;6110714;23;19924;-77
2022/06/08 11:42:53;;;;;;;;;;;;;;;13.40;72.61;97848.69;6159536;23;19925;-77
2022/06/08 11:45:23;;;;;;;;;;;;;;;13.45;72.24;97842.78;6186289;23;19920;-76
2022/06/08 11:47:49;;;;;;;;;;;;;;;13.40;71.01;97869.34;6186557;23;19920;-76
2022/06/08 11:50:17;;;;;;;;;;;;;;;13.38;71.28;97860.59;6188248;23;20031;-76
2022/06/08 11:52:46;;;;;;;;;;;;;;;13.39;69.81;97851.53;6110854;23;19928;-75
2022/06/08 11:55:14;;;;;;;;;;;;;;;13.44;70.92;97874.16;6159884;23;19920;-78
2022/06/08 11:58:08;;;;;;;;;;;;;;;13.55;70.29;97862.19;6134968;23;20060;-76
2022/06/08 12:00:51;;;;;;;;;;;;;;;13.64;70.80;97860.28;6131422;23;19920;-77
2022/06/08 12:03:16;;;;;;;;;;;;;;;13.75;69.43;97873.28;6184239;23;19951;-76
2022/06/08 12:05:44;;;;;;;;;;;;;;;13.66;69.72;97869.84;6159704;23;19920;-77
2022/06/08 12:08:14;;;;;;;;;;;;;;;13.66;69.71;97860.94;6191455;23;19998;-76
2022/06/08 12:10:40;;;;;;;;;;;;;;;13.76;69.26;97857.00;6170580;23;19920;-76
2022/06/08 12:13:15;;;;;;;;;;;;;;;13.82;69.27;97855.44;6247302;23;19979;-77
2022/06/08 12:15:46;;;;;;;;;;;;;;;13.69;69.20;97874.00;6221086;23;19920;-77
2022/06/08 12:18:20;;;;;;;;;;;;;;;13.62;69.46;97859.63;6221566;23;19919;-77
2022/06/08 12:20:47;;;;;;;;;;;;;;;13.67;70.05;97865.31;6196082;23;19954;-77
2022/06/08 12:23:13;;;;;;;;;;;;;;;13.75;69.79;97868.75;6220241;23;19919;-76
2022/06/08 12:25:38;;;;;;;;;;;;;;;13.58;69.02;97877.94;6221438;23;19926;-77
2022/06/08 12:28:04;;;;;;;;;;;;;;;13.50;70.36;97875.28;6220498;23;19943;-76
2022/06/08 12:30:32;;;;;;;;;;;;;;;13.53;70.27;97870.41;6247884;23;20235;-76
2022/06/08 12:33:00;;;;;;;;;;;;;;;13.57;70.34;97870.88;6247585;23;19919;-76
2022/06/08 12:35:30;;;;;;;;;;;;;;;13.55;69.76;97876.44;6195399;23;19923;-76
2022/06/08 12:38:16;;;;;;;;;;;;;;;13.43;70.20;97874.34;6170944;23;19998;-76
2022/06/08 12:40:55;;;;;;;;;;;;;;;13.46;70.23;97864.06;6220191;23;19920;-76
2022/06/08 12:43:21;;;;;;;;;;;;;;;13.65;69.94;97889.63;6220943;23;19994;-77
2022/06/08 12:46:05;;;;;;;;;;;;;;;13.63;69.75;97869.34;6220746;23;19969;-75
2022/06/08 12:48:37;;;;;;;;;;;;;;;13.63;69.78;97874.72;6195440;23;19925;-75
2022/06/08 12:51:21;;;;;;;;;;;;;;;13.73;69.28;97881.53;6220249;23;19923;-76
2022/06/08 12:53:47;;;;;;;;;;;;;;;13.67;68.85;97876.88;6220251;23;19927;-76
2022/06/08 12:56:13;;;;;;;;;;;;;;;13.65;69.50;97860.09;6220365;23;19935;-77
2022/06/08 12:58:39;;;;;;;;;;;;;;;13.59;69.56;97869.72;6220072;23;19942;-76
2022/06/08 13:01:09;;;;;;;;;;;;;;;13.60;69.09;97859.81;6195123;23;20339;-76
2022/06/08 13:03:35;;;;;;;;;;;;;;;13.64;68.79;97887.13;6195140;23;20298;-77
2022/06/08 13:06:01;;;;;;;;;;;;;;;13.64;68.73;97871.03;6195015;23;19926;-75
2022/06/08 13:08:28;;;;;;;;;;;;;;;13.72;69.10;97863.72;6219830;23;19919;-76
2022/06/08 13:10:59;;;;;;;;;;;;;;;13.66;68.88;97869.84;6246908;23;19930;-76
2022/06/08 13:13:26;;;;;;;;;;;;;;;13.50;69.40;97870.78;6246971;23;19919;-76
2022/06/08 13:15:52;;;;;;;;;;;;;;;13.47;69.50;97875.66;6220202;23;19920;-77
2022/06/08 13:18:25;;;;;;;;;;;;;;;13.53;69.63;97866.88;6194959;23;19919;-76